• Join FlightAware (Why Join?)
  • Login
  • US Flag 
07:27AM EST


 

Airport Tracker/Info


-or-


 

Live Flight TrackerFlight Track Log ✈ SWA1319 ✈ 26-Apr-2013 ✈ KOAK - KLAX

Flight Track Log - Related Links

Times and Time Zones

All times are in EDT time to prevent confusion due to time zone crossing. See the SWA1319 flight status page for this flight to view local times or setup timezone preferences in your user account.

Time Position Orientation Groundspeed Altitude Reporting Facility
EDT Latitude Longitude Course Direction KTS MPH feet Rate Location/Type
12:25AM 37.7167 -122.2333 305° West 144 166 900  Level Northern Cal TRACON
12:25AM 37.7258 -122.2500 305° West 151 174 1,600 2,267 Climbing Oakland Center
12:26AM 37.7606 -122.3056 308° West 203 234 4,300 2,656 Climbing Oakland Center
12:27AM 37.7181 -122.3647 228° Southwest 244 281 7,000 2,754 Climbing Oakland Center
12:28AM 37.6403 -122.3917 195° South 282 325 9,900 1,918 Climbing Oakland Center
12:29AM 37.5531 -122.4222 196° South 318 366 10,900 2,311 Climbing Oakland Center
12:30AM 37.4658 -122.4014 169° South 343 395 14,600 3,443 Climbing Oakland Center
12:31AM 37.4019 -122.3069 130° Southeast 358 412 17,900 3,197 Climbing Oakland Center
12:32AM 37.3164 -122.1903 133° Southeast 379 436 21,100 2,852 Climbing Oakland Center
12:33AM 37.2369 -122.0822 133° Southeast 418 481 23,700 2,557 Climbing Oakland Center
12:34AM 37.1547 -121.9700 133° Southeast 435 501 26,300 2,852 Climbing Oakland Center
12:35AM 37.0736 -121.8569 132° Southeast 436 502 29,500 2,508 Climbing Oakland Center
12:36AM 36.9900 -121.7494 134° Southeast 434 499 31,400 1,967 Climbing Oakland Center
12:37AM 36.9056 -121.6361 133° Southeast 445 512 33,500 2,016 Climbing Oakland Center
12:38AM 36.8144 -121.5131 133° Southeast 448 516 35,500 1,770 Climbing Oakland Center
12:39AM 36.7289 -121.3986 133° Southeast 451 519 37,100 1,636 Climbing Oakland Center
12:40AM 36.6450 -121.2842 132° Southeast 449 517 38,800 942 Climbing Oakland Center
12:41AM 36.5589 -121.1697 133° Southeast 452 520 39,000 98 Climbing Oakland Center
12:42AM 36.4750 -121.0569 133° Southeast 446 513 39,000 -98 Level Oakland Center
12:43AM 36.3897 -120.9469 134° Southeast 442 509 38,800 -590 Descending Oakland Center
12:44AM 36.3058 -120.8347 133° Southeast 443 510 37,800 -885 Descending Oakland Center
12:45AM 36.2206 -120.7228 133° Southeast 445 512 37,000 -393 Descending Oakland Center
12:46AM 36.1350 -120.6119 134° Southeast 444 511 37,000  Level Oakland Center
12:47AM 36.0497 -120.4972 133° Southeast 450 518 37,000  Level Oakland Center
12:48AM 35.9625 -120.3844 134° Southeast 451 519 37,000  Level Oakland Center
12:49AM 35.8747 -120.2722 134° Southeast 451 519 37,000  Level Oakland Center
12:50AM 35.7872 -120.1597 134° Southeast 452 520 37,000  Level Oakland Center
12:51AM 35.6983 -120.0456 134° Southeast 455 524 37,000  Level Oakland Center
12:52AM 35.6039 -119.9403 138° Southeast 454 522 37,000  Level Oakland Center
12:53AM 35.4992 -119.8506 145° Southeast 452 520 37,000  Level Oakland Center
12:54AM 35.3742 -119.7436 145° Southeast 453 521 37,000  Level Oakland Center
12:55AM 35.3539 -119.7256 144° Southeast 455 524 37,000  Level Los Angeles Center
12:56AM 35.2494 -119.6364 145° Southeast 456 525 37,000 -1,511 Level Los Angeles Center
12:57AM 35.1028 -119.5108 145° Southeast 457 526 33,600 -2,878 Descending Los Angeles Center
12:58AM 35.0011 -119.4253 145° Southeast 449 517 31,100 -1,918 Descending Los Angeles Center
12:59AM 34.8997 -119.3369 144° Southeast 447 514 29,700 -1,869 Descending Los Angeles Center
01:00AM 34.7983 -119.2517 145° Southeast 442 509 27,300 -2,293 Descending Los Angeles Center
01:01AM 34.7028 -119.1706 145° Southeast 425 489 25,000 -2,195 Descending Los Angeles Center
01:02AM 34.6111 -119.0958 146° Southeast 417 480 22,800 -2,213 Descending Los Angeles Center
01:03AM 34.5225 -119.0192 145° Southeast 392 451 20,500 -2,410 Descending Los Angeles Center
01:04AM 34.4175 -118.9331 146° Southeast 380 437 17,900 -2,293 Descending Los Angeles Center
01:05AM 34.3294 -118.8708 150° Southeast 369 425 15,800 -2,000 Descending Los Angeles Center
01:06AM 34.2342 -118.8358 163° South 357 411 13,400 -2,044 Descending Los Angeles Center
01:08AM 34.1239 -118.7958 163° South 346 398 11,200 -1,659 Descending Los Angeles Center
01:09AM 34.0439 -118.7492 154° Southeast 304 350 10,000 -590 Descending Los Angeles Center
01:10AM 34.0286 -118.6536 101° East 260 299 10,000 -197 Level Los Angeles Center
01:11AM 34.0228 -118.5897 96° East 251 289 9,600 -634 Descending Los Angeles Center
01:12AM 34.0133 -118.4908 97° East 241 277 8,700 -780 Descending Los Angeles Center
01:13AM 34.0122 -118.4306 91° East 216 249 8,000 -836 Descending Los Angeles Center
01:14AM 34.0200 -118.3639 82° East 205 236 7,000 -1,220 Descending Los Angeles Center
01:15AM 34.0272 -118.2833 84° East 201 231 5,500 -1,463 Descending Los Angeles Center
01:16AM 34.0319 -118.2167 85° East 200 230 4,000 -1,230 Descending Los Angeles Center
01:17AM 33.9844 -118.2161 179° South 199 229 3,000 -829 Descending Los Angeles Center
01:18AM 33.9658 -118.2669 246° West 176 203 2,300 -634 Descending Los Angeles Center
01:19AM 33.9603 -118.3178 263° West 162 186 1,700 -689 Descending Los Angeles Center
01:20AM 33.9572 -118.3631 265° West 149 171 900 -787 Descending Los Angeles Center
01:21AM 33.9525 -118.4053 262° West 137 158 100 -787 Descending Los Angeles Center
01:23AM 33.9425 -118.4081 228° Southwest  Level Estimated